createdAt,value
2018-12-30T00:01:42.857Z,10.61
2018-12-30T00:04:16.764Z,10.59
2018-12-30T00:06:50.547Z,10.57
2018-12-30T00:09:24.252Z,10.69
2018-12-30T00:11:57.750Z,10.77
2018-12-30T00:14:31.365Z,10.67
2018-12-30T00:17:04.882Z,10.60
2018-12-30T00:19:42.587Z,10.60
2018-12-30T00:22:13.825Z,10.71
2018-12-30T00:24:47.428Z,10.69
2018-12-30T00:27:20.950Z,10.71
2018-12-30T00:29:54.583Z,10.71
2018-12-30T00:32:28.409Z,10.72
2018-12-30T00:35:02.214Z,10.77
2018-12-30T00:37:35.730Z,10.69
2018-12-30T00:40:09.269Z,10.78
2018-12-30T00:42:43.169Z,10.71
2018-12-30T00:45:16.833Z,10.74
2018-12-30T00:47:50.342Z,10.81
2018-12-30T00:50:23.948Z,10.75
2018-12-30T00:52:57.734Z,10.74
2018-12-30T00:55:31.364Z,10.75
2018-12-30T00:58:04.902Z,10.83
2018-12-30T01:00:38.515Z,10.71
2018-12-30T01:03:12.406Z,10.70
2018-12-30T01:05:46.043Z,10.89
2018-12-30T01:08:19.553Z,10.93
2018-12-30T01:10:53.186Z,10.83
2018-12-30T01:13:26.868Z,10.83
2018-12-30T01:16:00.537Z,10.61
2018-12-30T01:18:34.062Z,10.36
2018-12-30T01:21:07.724Z,10.24
2018-12-30T01:23:41.614Z,10.17
2018-12-30T01:26:15.255Z,10.12
2018-12-30T01:28:48.761Z,9.89
2018-12-30T01:31:22.379Z,10.05
2018-12-30T01:33:56.231Z,9.95
2018-12-30T01:36:29.964Z,9.86
2018-12-30T01:39:04.433Z,9.75
2018-12-30T01:41:38.001Z,9.51
2018-12-30T01:44:11.501Z,9.32
2018-12-30T01:46:45.047Z,9.43
2018-12-30T01:49:18.629Z,9.40
2018-12-30T01:51:52.126Z,9.44
2018-12-30T01:54:25.567Z,9.43
2018-12-30T01:56:59.201Z,9.40
2018-12-30T01:59:32.700Z,9.29
2018-12-30T02:02:06.326Z,9.11
2018-12-30T02:04:39.889Z,9.13
2018-12-30T02:07:13.505Z,8.95
2018-12-30T02:09:47.012Z,8.99
2018-12-30T02:12:20.551Z,9.08
2018-12-30T02:14:54.045Z,8.91
2018-12-30T02:17:27.617Z,8.91
2018-12-30T02:20:01.085Z,8.83
2018-12-30T02:22:35.179Z,8.82
2018-12-30T02:25:08.762Z,8.85
2018-12-30T02:27:42.307Z,8.71
2018-12-30T02:30:16.226Z,8.74
2018-12-30T02:32:49.687Z,8.74
2018-12-30T02:35:23.202Z,8.75
2018-12-30T02:37:56.803Z,8.68
2018-12-30T02:40:30.364Z,8.69
2018-12-30T02:43:03.970Z,8.60
2018-12-30T02:45:37.488Z,8.73
2018-12-30T02:48:11.299Z,8.71
2018-12-30T02:50:45.118Z,8.74
2018-12-30T02:53:19.225Z,8.69
2018-12-30T02:55:52.891Z,8.73
2018-12-30T02:58:26.420Z,8.47
2018-12-30T03:01:00.815Z,8.73
2018-12-30T03:03:34.341Z,8.77
2018-12-30T03:06:07.976Z,8.73
2018-12-30T03:08:41.795Z,8.90
2018-12-30T03:11:15.417Z,8.72
2018-12-30T03:13:49.032Z,8.80
2018-12-30T03:16:22.714Z,8.79
2018-12-30T03:18:56.572Z,8.87
2018-12-30T03:21:30.095Z,8.96
2018-12-30T03:24:03.906Z,8.90
2018-12-30T03:26:37.477Z,8.92
2018-12-30T03:29:11.155Z,8.95
2018-12-30T03:31:44.595Z,8.92
2018-12-30T03:34:18.217Z,8.86
2018-12-30T03:36:51.728Z,8.93
2018-12-30T03:39:25.805Z,8.93
2018-12-30T03:41:59.453Z,8.95
2018-12-30T03:44:33.306Z,8.92
2018-12-30T03:47:07.590Z,8.88
2018-12-30T03:49:43.751Z,8.78
2018-12-30T03:52:17.239Z,8.65
2018-12-30T03:54:50.941Z,8.77
2018-12-30T03:57:24.699Z,8.68
2018-12-30T03:59:58.272Z,8.74
2018-12-30T04:02:31.882Z,8.74
2018-12-30T04:05:05.401Z,8.67
2018-12-30T04:07:39.102Z,8.68
2018-12-30T04:10:12.821Z,8.78
2018-12-30T04:12:46.335Z,8.67
2018-12-30T04:15:20.104Z,8.60
2018-12-30T04:17:53.603Z,8.66
2018-12-30T04:20:46.433Z,8.64
2018-12-30T04:23:19.944Z,8.70
2018-12-30T04:25:53.496Z,8.68
2018-12-30T04:28:27.285Z,8.68
2018-12-30T04:31:00.999Z,8.68
2018-12-30T04:33:34.545Z,8.66
2018-12-30T04:36:08.536Z,8.57
2018-12-30T04:38:42.023Z,8.66
2018-12-30T04:41:15.470Z,8.78
2018-12-30T04:43:49.511Z,8.82
2018-12-30T04:46:23.038Z,8.72
2018-12-30T04:48:56.609Z,8.85
2018-12-30T04:51:30.150Z,8.87
2018-12-30T04:54:03.652Z,8.86
2018-12-30T04:56:37.205Z,8.87
2018-12-30T04:59:10.701Z,8.83
2018-12-30T05:01:44.247Z,8.92
2018-12-30T05:04:17.774Z,8.90
2018-12-30T05:06:51.429Z,8.91
2018-12-30T05:09:24.917Z,8.99
2018-12-30T05:11:58.543Z,9.10
2018-12-30T05:14:32.141Z,9.14
2018-12-30T05:17:05.682Z,9.27
2018-12-30T05:19:39.113Z,9.04
2018-12-30T05:22:12.723Z,9.23
2018-12-30T05:24:46.234Z,9.17
2018-12-30T05:27:19.817Z,9.23
2018-12-30T05:29:54.125Z,9.19
2018-12-30T05:32:27.676Z,9.27
2018-12-30T05:35:01.206Z,9.26
2018-12-30T05:37:35.483Z,9.14
2018-12-30T05:40:09.248Z,9.21
2018-12-30T05:42:43.171Z,9.30
2018-12-30T05:45:16.667Z,9.35
2018-12-30T05:47:50.207Z,9.32
2018-12-30T05:50:23.777Z,9.25
2018-12-30T05:52:57.484Z,9.40
2018-12-30T05:55:30.989Z,9.41
2018-12-30T05:58:04.709Z,9.46
2018-12-30T06:00:38.296Z,9.44
2018-12-30T06:03:12.000Z,9.59
2018-12-30T06:05:45.595Z,9.47
2018-12-30T06:08:19.166Z,9.54
2018-12-30T06:10:52.676Z,9.46
2018-12-30T06:13:26.296Z,9.61
2018-12-30T06:15:59.796Z,9.59
2018-12-30T06:18:33.421Z,9.66
2018-12-30T06:21:06.933Z,9.76
2018-12-30T06:23:40.542Z,9.69
2018-12-30T06:26:14.110Z,9.66
2018-12-30T06:28:47.787Z,9.66
2018-12-30T06:31:21.305Z,9.77
2018-12-30T06:33:54.913Z,9.76
2018-12-30T06:36:28.436Z,9.78
2018-12-30T06:39:02.096Z,9.72
2018-12-30T06:41:35.599Z,9.73
2018-12-30T06:44:09.065Z,9.75
2018-12-30T06:46:42.735Z,9.75
2018-12-30T06:49:16.282Z,9.81
2018-12-30T06:51:49.782Z,9.79
2018-12-30T06:54:23.497Z,9.85
2018-12-30T06:56:57.065Z,9.85
2018-12-30T06:59:30.621Z,9.79
2018-12-30T07:02:04.121Z,9.74
2018-12-30T07:04:37.731Z,9.80
2018-12-30T07:07:11.260Z,9.70
2018-12-30T07:09:44.813Z,9.83
2018-12-30T07:12:18.309Z,9.85
2018-12-30T07:14:51.869Z,9.91
2018-12-30T07:17:25.440Z,9.95
2018-12-30T07:19:59.095Z,9.90
2018-12-30T07:22:32.749Z,9.99
2018-12-30T07:25:06.337Z,9.96
2018-12-30T07:27:39.967Z,9.88
2018-12-30T07:30:13.540Z,10.06
2018-12-30T07:32:47.062Z,10.10
2018-12-30T07:35:20.730Z,10.02
2018-12-30T07:37:54.239Z,10.04
2018-12-30T07:40:27.810Z,9.97
2018-12-30T07:43:01.323Z,10.07
2018-12-30T07:45:34.931Z,10.01
2018-12-30T07:48:08.568Z,10.00
2018-12-30T07:50:42.115Z,9.94
2018-12-30T07:53:15.650Z,9.99
2018-12-30T07:55:49.268Z,9.92
2018-12-30T07:58:22.846Z,10.02
2018-12-30T08:00:56.421Z,10.06
2018-12-30T08:03:29.843Z,10.08
2018-12-30T08:06:03.529Z,10.08
2018-12-30T08:08:36.991Z,10.00
2018-12-30T08:11:10.533Z,9.94
2018-12-30T08:13:43.992Z,9.94
2018-12-30T08:16:17.629Z,10.06
2018-12-30T08:18:51.208Z,10.04
2018-12-30T08:21:24.670Z,10.01
2018-12-30T08:23:58.211Z,10.09
2018-12-30T08:26:31.852Z,10.10
2018-12-30T08:29:05.352Z,10.00
2018-12-30T08:31:38.904Z,10.09
2018-12-30T08:34:12.492Z,10.21
2018-12-30T08:36:46.053Z,10.19
2018-12-30T08:39:19.638Z,10.21
2018-12-30T08:41:53.269Z,10.27
2018-12-30T08:44:26.841Z,10.23
2018-12-30T08:47:00.483Z,10.24
2018-12-30T08:49:33.985Z,10.23
2018-12-30T08:52:07.609Z,10.20
2018-12-30T08:54:41.180Z,10.23
2018-12-30T08:57:14.727Z,10.21
2018-12-30T08:59:48.541Z,10.22
2018-12-30T09:02:22.336Z,10.23
2018-12-30T09:04:57.721Z,10.20
2018-12-30T09:07:31.623Z,10.23
2018-12-30T09:10:07.701Z,10.35
2018-12-30T09:12:41.642Z,10.32
2018-12-30T09:15:15.242Z,10.21
2018-12-30T09:17:48.994Z,10.38
2018-12-30T09:20:22.797Z,10.17
2018-12-30T09:22:57.299Z,10.32
2018-12-30T09:25:30.875Z,10.39
2018-12-30T09:28:04.660Z,10.46
2018-12-30T09:30:38.097Z,10.48
2018-12-30T09:33:11.769Z,10.48
2018-12-30T09:35:45.275Z,10.60
2018-12-30T09:38:18.805Z,10.59
2018-12-30T09:40:52.395Z,10.71
2018-12-30T09:43:26.030Z,10.71
2018-12-30T09:45:59.615Z,10.68
2018-12-30T09:48:33.891Z,10.77
2018-12-30T09:51:07.512Z,10.80
2018-12-30T09:53:45.155Z,10.83
2018-12-30T09:56:16.288Z,10.74
2018-12-30T09:58:49.907Z,10.69
2018-12-30T10:01:23.349Z,10.75
2018-12-30T10:03:56.960Z,10.75
2018-12-30T10:06:30.468Z,10.64
2018-12-30T10:09:05.646Z,10.68
2018-12-30T10:11:39.232Z,10.78
2018-12-30T10:14:12.769Z,10.81
2018-12-30T10:16:46.304Z,10.82
2018-12-30T10:19:19.867Z,10.85
2018-12-30T10:21:53.382Z,10.88
2018-12-30T10:24:27.079Z,10.73
2018-12-30T10:27:00.581Z,10.72
2018-12-30T10:29:34.135Z,10.89
2018-12-30T10:32:07.660Z,10.87
2018-12-30T10:34:41.216Z,10.81
2018-12-30T10:37:14.671Z,10.93
2018-12-30T10:39:48.312Z,11.01
2018-12-30T10:42:21.820Z,10.97
2018-12-30T10:44:55.438Z,11.03
2018-12-30T10:47:29.061Z,11.04
2018-12-30T10:50:02.779Z,11.10
2018-12-30T10:52:36.342Z,11.03
2018-12-30T10:55:09.916Z,10.78
2018-12-30T10:57:43.414Z,11.00
2018-12-30T11:00:17.020Z,10.98
2018-12-30T11:02:50.594Z,10.99
2018-12-30T11:05:24.229Z,11.01
2018-12-30T11:07:57.668Z,10.99
2018-12-30T11:10:31.361Z,11.09
2018-12-30T11:13:04.937Z,11.27
2018-12-30T11:15:38.843Z,11.21
2018-12-30T11:18:12.328Z,11.32
2018-12-30T11:20:45.886Z,11.32
2018-12-30T11:23:19.389Z,11.24
2018-12-30T11:25:53.013Z,11.19
2018-12-30T11:28:26.587Z,11.27
2018-12-30T11:31:00.122Z,11.16
2018-12-30T11:33:33.722Z,11.22
2018-12-30T11:36:07.592Z,11.27
2018-12-30T11:38:41.090Z,11.14
2018-12-30T11:41:14.627Z,11.17
2018-12-30T11:43:48.198Z,11.25
2018-12-30T11:46:21.810Z,11.14
2018-12-30T11:48:55.321Z,11.11
2018-12-30T11:51:28.947Z,11.23
2018-12-30T11:54:02.492Z,11.08
2018-12-30T11:56:36.025Z,11.15
2018-12-30T11:59:09.607Z,11.20
2018-12-30T12:01:43.246Z,11.24
2018-12-30T12:04:16.756Z,11.23
2018-12-30T12:06:50.405Z,11.15
2018-12-30T12:09:24.003Z,11.25
2018-12-30T12:11:57.583Z,11.19
2018-12-30T12:14:31.164Z,11.30
2018-12-30T12:17:05.079Z,11.42
2018-12-30T12:19:38.884Z,11.43
2018-12-30T12:22:12.505Z,11.53
2018-12-30T12:24:46.084Z,11.35
2018-12-30T12:27:19.616Z,11.40
2018-12-30T12:29:53.127Z,11.38
2018-12-30T12:32:26.749Z,11.47
2018-12-30T12:35:00.322Z,11.55
2018-12-30T12:37:33.875Z,11.54
2018-12-30T12:40:07.502Z,11.37
2018-12-30T12:42:41.151Z,11.38
2018-12-30T12:45:14.992Z,11.39
2018-12-30T12:47:48.670Z,11.53
2018-12-30T12:50:22.261Z,11.29
2018-12-30T12:52:55.955Z,11.27
2018-12-30T12:55:29.610Z,11.34
2018-12-30T12:58:03.370Z,11.27
2018-12-30T13:00:37.894Z,11.40
2018-12-30T13:03:11.534Z,11.39
2018-12-30T13:05:45.193Z,11.46
2018-12-30T13:08:18.647Z,11.50
2018-12-30T13:10:52.220Z,11.34
2018-12-30T13:13:26.072Z,11.30
2018-12-30T13:16:03.386Z,11.37
2018-12-30T13:18:34.910Z,11.42
2018-12-30T13:21:08.487Z,11.42
2018-12-30T13:23:42.123Z,11.46
2018-12-30T13:26:15.708Z,11.39
2018-12-30T13:28:49.262Z,11.30
2018-12-30T13:31:22.769Z,11.41
2018-12-30T13:33:56.436Z,11.28
2018-12-30T13:36:30.060Z,11.26
2018-12-30T13:39:04.462Z,11.38
2018-12-30T13:41:37.907Z,11.30
2018-12-30T13:44:11.573Z,11.33
2018-12-30T13:46:45.079Z,11.34
2018-12-30T13:49:18.793Z,11.34
2018-12-30T13:51:53.270Z,11.27
2018-12-30T13:54:26.934Z,11.22
2018-12-30T13:57:00.438Z,11.18
2018-12-30T13:59:34.049Z,11.14
2018-12-30T14:02:07.631Z,11.30
2018-12-30T14:04:41.271Z,11.16
2018-12-30T14:07:14.836Z,11.21
2018-12-30T14:09:48.381Z,11.15
2018-12-30T14:12:21.952Z,11.22
2018-12-30T14:14:55.591Z,11.23
2018-12-30T14:17:29.946Z,11.12
2018-12-30T14:20:03.569Z,11.17
2018-12-30T14:22:37.074Z,11.23
2018-12-30T14:25:10.633Z,11.15
2018-12-30T14:27:44.183Z,11.13
2018-12-30T14:30:17.714Z,11.17
2018-12-30T14:32:51.321Z,11.13
2018-12-30T14:35:24.896Z,11.14
2018-12-30T14:37:58.468Z,11.12
2018-12-30T14:40:32.129Z,11.05
2018-12-30T14:43:05.634Z,11.01
2018-12-30T14:45:39.316Z,11.00
2018-12-30T14:48:12.821Z,10.85
2018-12-30T14:50:46.281Z,10.74
2018-12-30T14:53:19.866Z,10.95
2018-12-30T14:55:53.433Z,10.98
2018-12-30T14:58:26.870Z,10.93
2018-12-30T15:01:00.537Z,10.97
2018-12-30T15:03:34.104Z,10.84
2018-12-30T15:06:07.563Z,10.93
2018-12-30T15:08:41.199Z,10.92
2018-12-30T15:11:14.893Z,10.89
2018-12-30T15:13:48.529Z,10.78
2018-12-30T15:16:22.133Z,10.85
2018-12-30T15:18:55.706Z,10.78
2018-12-30T15:21:29.180Z,10.70
2018-12-30T15:24:02.680Z,10.70
2018-12-30T15:26:36.530Z,10.68
2018-12-30T15:29:10.187Z,10.64
2018-12-30T15:31:43.893Z,10.64
2018-12-30T15:34:17.677Z,10.60
2018-12-30T15:36:53.161Z,10.62
2018-12-30T15:39:26.973Z,10.64
2018-12-30T15:42:01.102Z,10.64
2018-12-30T15:44:35.033Z,10.62
2018-12-30T15:47:08.945Z,10.57
2018-12-30T15:49:42.545Z,10.64
2018-12-30T15:52:16.535Z,10.62
2018-12-30T15:54:50.231Z,10.62
2018-12-30T15:57:24.019Z,10.68
2018-12-30T15:59:57.785Z,10.71
2018-12-30T16:02:31.405Z,10.69
2018-12-30T16:05:06.252Z,10.61
2018-12-30T16:07:40.202Z,10.68
2018-12-30T16:10:15.438Z,10.71
2018-12-30T16:12:49.103Z,10.71
2018-12-30T16:15:22.713Z,10.75
2018-12-30T16:17:57.714Z,10.68
2018-12-30T16:20:31.451Z,10.62
2018-12-30T16:23:05.300Z,10.57
2018-12-30T16:25:38.979Z,10.43
2018-12-30T16:28:12.869Z,10.58
2018-12-30T16:30:46.506Z,10.61
2018-12-30T16:33:20.329Z,10.59
2018-12-30T16:35:53.952Z,10.53
2018-12-30T16:38:27.682Z,10.55
2018-12-30T16:41:01.314Z,10.51
2018-12-30T16:43:34.888Z,10.54
2018-12-30T16:46:08.470Z,10.56
2018-12-30T16:48:42.281Z,10.58
2018-12-30T16:51:16.161Z,10.56
2018-12-30T16:53:50.214Z,10.45
2018-12-30T16:56:23.827Z,10.48
2018-12-30T16:58:57.637Z,10.51
2018-12-30T17:01:31.241Z,10.49
2018-12-30T17:04:05.033Z,10.48
2018-12-30T17:06:38.843Z,10.51
2018-12-30T17:09:12.693Z,10.51
2018-12-30T17:11:46.297Z,10.49
2018-12-30T17:14:20.007Z,10.48
2018-12-30T17:16:53.554Z,10.40
2018-12-30T17:19:27.174Z,10.30
2018-12-30T17:22:00.921Z,10.38
2018-12-30T17:24:34.691Z,10.39
2018-12-30T17:27:08.276Z,10.43
2018-12-30T17:29:42.469Z,10.42
2018-12-30T17:32:16.103Z,10.44
2018-12-30T17:34:50.014Z,10.42
2018-12-30T17:37:23.700Z,10.36
2018-12-30T17:39:57.402Z,10.33
2018-12-30T17:42:30.901Z,10.25
2018-12-30T17:45:05.669Z,10.30
2018-12-30T17:47:39.288Z,10.25
2018-12-30T17:50:13.078Z,10.23
2018-12-30T17:52:46.771Z,10.24
2018-12-30T17:55:20.603Z,10.23
2018-12-30T17:57:54.186Z,10.20
2018-12-30T18:00:27.801Z,10.25
2018-12-30T18:03:01.439Z,10.22
2018-12-30T18:05:35.366Z,10.17
2018-12-30T18:08:08.954Z,10.24
2018-12-30T18:10:42.703Z,10.22
2018-12-30T18:13:16.369Z,10.22
2018-12-30T18:15:50.217Z,10.23
2018-12-30T18:18:24.233Z,10.23
2018-12-30T18:20:57.926Z,10.27
2018-12-30T18:23:31.833Z,10.25
2018-12-30T18:26:05.655Z,10.31
2018-12-30T18:28:39.384Z,10.26
2018-12-30T18:31:13.302Z,10.24
2018-12-30T18:33:46.956Z,10.23
2018-12-30T18:36:20.751Z,10.24
2018-12-30T18:38:54.355Z,10.19
2018-12-30T18:41:28.367Z,10.22
2018-12-30T18:44:02.009Z,10.26
2018-12-30T18:46:35.833Z,10.33
2018-12-30T18:49:09.375Z,10.29
2018-12-30T18:51:43.017Z,10.33
2018-12-30T18:54:16.642Z,10.33
2018-12-30T18:56:50.456Z,10.32
2018-12-30T18:59:24.261Z,10.38
2018-12-30T19:01:58.067Z,10.36
2018-12-30T19:04:31.689Z,10.39
2018-12-30T19:07:05.377Z,10.40
2018-12-30T19:09:39.132Z,10.45
2018-12-30T19:12:12.849Z,10.45
2018-12-30T19:14:46.919Z,10.42
2018-12-30T19:17:21.013Z,10.41
2018-12-30T19:19:54.647Z,10.42
2018-12-30T19:22:28.274Z,10.45
2018-12-30T19:25:01.918Z,10.49
2018-12-30T19:27:35.621Z,10.44
2018-12-30T19:30:10.377Z,10.42
2018-12-30T19:32:44.310Z,10.43
2018-12-30T19:35:18.916Z,10.44
2018-12-30T19:37:52.925Z,10.41
2018-12-30T19:40:26.506Z,10.39
2018-12-30T19:43:00.283Z,10.41
2018-12-30T19:45:34.079Z,10.40
2018-12-30T19:48:08.899Z,10.44
2018-12-30T19:50:42.642Z,10.47
2018-12-30T19:53:16.804Z,10.47
2018-12-30T19:55:50.448Z,10.45
2018-12-30T19:58:24.265Z,10.46
2018-12-30T20:00:57.930Z,10.42
2018-12-30T20:03:31.647Z,10.43
2018-12-30T20:06:05.294Z,10.38
2018-12-30T20:08:38.936Z,10.34
2018-12-30T20:11:12.554Z,10.36
2018-12-30T20:13:47.751Z,10.39
2018-12-30T20:16:21.452Z,10.39
2018-12-30T20:18:55.426Z,10.41
2018-12-30T20:21:29.085Z,10.48
2018-12-30T20:24:03.095Z,10.45
2018-12-30T20:26:36.800Z,10.48
2018-12-30T20:29:10.747Z,10.47
2018-12-30T20:31:44.263Z,10.49
2018-12-30T20:34:17.921Z,10.53
2018-12-30T20:36:51.445Z,10.50
2018-12-30T20:39:25.154Z,10.46
2018-12-30T20:41:58.824Z,10.50
2018-12-30T20:44:32.585Z,10.46
2018-12-30T20:47:06.520Z,10.46
2018-12-30T20:49:40.220Z,10.47
2018-12-30T20:52:14.008Z,10.39
2018-12-30T20:54:47.709Z,10.38
2018-12-30T20:57:21.505Z,10.35
2018-12-30T20:59:55.228Z,10.34
2018-12-30T21:02:28.871Z,10.33
2018-12-30T21:05:04.195Z,10.28
2018-12-30T21:07:37.812Z,10.33
2018-12-30T21:10:42.900Z,10.32
2018-12-30T21:13:16.477Z,10.35
2018-12-30T21:15:50.141Z,10.38
2018-12-30T21:18:23.647Z,10.45
2018-12-30T21:20:57.255Z,10.49
2018-12-30T21:23:30.774Z,10.46
2018-12-30T21:26:04.314Z,10.47
2018-12-30T21:28:37.842Z,10.45
2018-12-30T21:31:11.700Z,10.48
2018-12-30T21:33:45.232Z,10.49
2018-12-30T21:36:18.908Z,10.46
2018-12-30T21:38:52.424Z,10.45
2018-12-30T21:41:25.962Z,10.53
2018-12-30T21:43:59.538Z,10.48
2018-12-30T21:46:33.089Z,10.49
2018-12-30T21:49:06.689Z,10.49
2018-12-30T21:51:40.644Z,10.44
2018-12-30T21:54:14.152Z,10.41
2018-12-30T21:56:54.556Z,10.41
2018-12-30T21:59:26.421Z,10.42
2018-12-30T22:01:59.980Z,10.46
2018-12-30T22:04:33.498Z,10.51
2018-12-30T22:07:07.120Z,10.50
2018-12-30T22:09:40.663Z,10.44
2018-12-30T22:12:14.187Z,10.46
2018-12-30T22:14:47.774Z,10.51
2018-12-30T22:17:21.336Z,10.42
2018-12-30T22:19:54.903Z,10.45
2018-12-30T22:22:28.459Z,10.42
2018-12-30T22:25:01.979Z,10.40
2018-12-30T22:27:35.671Z,10.42
2018-12-30T22:30:09.180Z,10.43
2018-12-30T22:32:42.719Z,10.43
2018-12-30T22:35:16.302Z,10.44
2018-12-30T22:37:49.848Z,10.48
2018-12-30T22:40:23.510Z,10.46
2018-12-30T22:42:57.130Z,10.54
2018-12-30T22:45:30.665Z,10.53
2018-12-30T22:48:04.205Z,10.54
2018-12-30T22:50:37.651Z,10.60
2018-12-30T22:53:11.174Z,10.60
2018-12-30T22:55:44.602Z,10.46
2018-12-30T22:58:18.211Z,10.52
2018-12-30T23:00:54.080Z,10.50
2018-12-30T23:03:27.696Z,10.56
2018-12-30T23:06:01.206Z,10.59
2018-12-30T23:08:34.909Z,10.57
2018-12-30T23:11:08.489Z,10.56
2018-12-30T23:13:42.117Z,10.59
2018-12-30T23:16:15.624Z,10.57
2018-12-30T23:18:49.157Z,10.60
2018-12-30T23:21:22.737Z,10.59
2018-12-30T23:23:56.326Z,10.58
2018-12-30T23:26:29.831Z,10.54
2018-12-30T23:29:03.391Z,10.40
2018-12-30T23:31:36.966Z,10.42
2018-12-30T23:34:10.570Z,10.47
2018-12-30T23:36:44.157Z,10.46
2018-12-30T23:39:17.856Z,10.43
2018-12-30T23:41:51.448Z,10.48
2018-12-30T23:44:24.990Z,10.47
2018-12-30T23:46:58.598Z,10.50
2018-12-30T23:49:32.208Z,10.54
2018-12-30T23:52:05.818Z,10.53
2018-12-30T23:54:39.626Z,10.52
2018-12-30T23:57:13.132Z,10.53
2018-12-30T23:59:46.766Z,10.55
